Time;durP1;ratioP1;P1;durP2;ratioP2;P2;SDS_P1;SDS_P2;PMS_P1;PMS_P2;Temp;Humidity;BMP_temperature;BMP_pressure;BME280_temperature;BME280_humidity;BME280_pressure;Samples;Min_cycle;Max_cycle;Signal;HPM_P1;HPM_P2
2021/12/12 01:12:35;;;;;;;2.20;0.70;;;22.30;58.10;;;;;;4201327;27;20431;-49
2021/12/12 01:14:42;;;;;;;1.48;0.80;;;22.50;58.30;;;;;;4183472;27;20174;-53
2021/12/12 01:16:56;;;;;;;1.73;0.65;;;22.50;58.10;;;;;;4191716;27;20088;-52
2021/12/12 01:19:20;;;;;;;0.63;0.50;;;22.50;58.10;;;;;;4184470;27;21052;-53
2021/12/12 01:21:33;;;;;;;1.70;0.77;;;22.50;58.10;;;;;;4190606;27;20162;-50
2021/12/12 01:23:59;;;;;;;0.77;0.60;;;22.50;57.90;;;;;;4191661;27;20040;-50
2021/12/12 01:26:01;;;;;;;1.65;0.60;;;22.60;58.00;;;;;;4189830;27;20142;-52
2021/12/12 01:28:05;;;;;;;2.08;0.55;;;22.50;57.90;;;;;;4186425;27;20785;-54
2021/12/12 01:30:10;;;;;;;0.93;0.50;;;22.60;58.10;;;;;;4189967;27;20975;-49
2021/12/12 01:32:23;;;;;;;1.60;0.82;;;22.60;57.80;;;;;;4165898;28;20055;-54
2021/12/12 01:34:30;;;;;;;1.15;0.60;;;22.60;57.70;;;;;;4190598;27;21075;-51
2021/12/12 01:36:46;;;;;;;1.83;0.68;;;22.60;57.70;;;;;;4164122;28;20834;-49
2021/12/12 01:38:52;;;;;;;3.13;0.65;;;22.60;57.70;;;;;;4170900;28;21642;-52
2021/12/12 01:40:58;;;;;;;1.27;0.70;;;22.60;57.70;;;;;;4191412;27;20459;-51
2021/12/12 01:43:26;;;;;;;1.75;0.60;;;22.60;57.60;;;;;;4191302;27;20043;-52
2021/12/12 01:45:39;;;;;;;0.90;0.55;;;22.70;57.20;;;;;;4199650;27;20138;-47
2021/12/12 01:47:47;;;;;;;1.05;0.50;;;22.70;57.70;;;;;;4199066;27;20131;-51
2021/12/12 01:49:52;;;;;;;1.05;0.55;;;22.70;57.60;;;;;;4192878;27;20158;-50
2021/12/12 01:51:57;;;;;;;0.90;0.47;;;22.70;57.50;;;;;;4167135;28;20051;-47
2021/12/12 01:54:02;;;;;;;1.27;0.57;;;22.70;57.60;;;;;;4189990;27;20063;-49
2021/12/12 01:56:07;;;;;;;0.40;0.38;;;22.70;57.60;;;;;;4172704;28;20130;-51
2021/12/12 01:58:16;;;;;;;1.27;0.95;;;22.70;57.40;;;;;;4196840;27;20035;-52
2021/12/12 02:00:36;;;;;;;1.10;0.55;;;22.70;57.40;;;;;;4199445;27;20055;-52
2021/12/12 02:02:39;;;;;;;1.17;0.52;;;22.70;57.40;;;;;;4171534;28;20791;-49
2021/12/12 02:04:45;;;;;;;1.45;0.43;;;22.70;57.40;;;;;;4201248;27;20063;-48
2021/12/12 02:06:50;;;;;;;1.95;0.90;;;22.80;57.40;;;;;;4197254;27;20047;-48
2021/12/12 02:08:55;;;;;;;2.05;0.70;;;22.80;57.40;;;;;;4193122;27;20051;-49
2021/12/12 02:11:01;;;;;;;1.20;0.52;;;22.80;57.40;;;;;;4188881;27;20048;-50
2021/12/12 02:13:07;;;;;;;1.40;0.65;;;22.80;57.50;;;;;;4184374;28;20047;-49
2021/12/12 02:15:12;;;;;;;2.17;0.70;;;22.80;57.50;;;;;;4184997;28;20100;-52
2021/12/12 02:17:23;;;;;;;1.55;0.50;;;22.80;57.30;;;;;;4190063;28;20086;-47
2021/12/12 02:19:34;;;;;;;2.40;0.80;;;22.90;57.40;;;;;;4187701;28;20052;-48
2021/12/12 02:21:58;;;;;;;2.13;0.73;;;22.90;57.20;;;;;;4189654;28;20067;-48
2021/12/12 02:36:02;;;;;;;1.52;0.70;;;23.00;57.80;;;;;;4185042;28;20048;-52
2021/12/12 02:38:06;;;;;;;2.40;1.08;;;23.00;57.10;;;;;;4190971;28;20063;-51
2021/12/12 02:40:23;;;;;;;3.30;1.08;;;23.00;57.10;;;;;;4181306;28;20058;-48
2021/12/12 02:42:25;;;;;;;2.83;1.13;;;23.00;57.10;;;;;;4193213;28;20063;-48
2021/12/12 02:44:31;;;;;;;2.17;0.83;;;23.00;57.00;;;;;;4187684;28;20114;-52
2021/12/12 02:46:36;;;;;;;2.17;0.82;;;23.10;57.10;;;;;;4183712;28;21125;-49
2021/12/12 02:48:41;;;;;;;0.75;0.60;;;23.10;57.10;;;;;;4186815;28;20188;-47
2021/12/12 02:50:50;;;;;;;1.77;0.60;;;23.10;57.20;;;;;;4191543;28;20044;-49
2021/12/12 02:53:00;;;;;;;2.75;0.90;;;23.10;57.20;;;;;;4192493;28;20096;-45
2021/12/12 02:55:13;;;;;;;1.63;0.70;;;23.10;57.20;;;;;;4187830;28;20548;-51
2021/12/12 02:57:20;;;;;;;2.20;0.90;;;23.20;57.80;;;;;;4174064;28;20090;-48
2021/12/12 02:59:24;;;;;;;1.63;0.80;;;23.20;57.20;;;;;;4184747;28;20051;-51
2021/12/12 03:01:39;;;;;;;2.40;1.00;;;23.20;57.20;;;;;;4180716;28;20188;-47
2021/12/12 03:03:44;;;;;;;2.25;0.77;;;23.20;57.10;;;;;;4180413;28;22072;-50
2021/12/12 03:05:49;;;;;;;2.33;0.90;;;23.20;57.10;;;;;;4179198;28;20081;-52
2021/12/12 03:07:52;;;;;;;1.13;0.65;;;23.20;57.00;;;;;;4180516;27;20048;-49
2021/12/12 03:09:56;;;;;;;3.58;1.05;;;23.20;57.10;;;;;;4188245;28;20071;-48
2021/12/12 03:12:07;;;;;;;1.30;0.75;;;23.20;57.00;;;;;;4186963;28;20058;-49
2021/12/12 03:14:10;;;;;;;2.20;0.75;;;23.20;57.00;;;;;;4185475;28;20054;-50
2021/12/12 03:16:13;;;;;;;3.67;1.00;;;23.30;57.00;;;;;;4180874;28;20452;-49
2021/12/12 03:18:26;;;;;;;2.13;0.73;;;23.30;57.00;;;;;;4178149;28;21309;-52
2021/12/12 03:20:37;;;;;;;4.50;1.08;;;23.30;56.90;;;;;;4178104;28;20058;-49
2021/12/12 03:22:39;;;;;;;2.55;1.23;;;23.30;56.80;;;;;;4176730;28;20044;-47
2021/12/12 03:24:42;;;;;;;3.40;1.02;;;23.30;56.80;;;;;;4186965;28;20051;-51
2021/12/12 03:26:46;;;;;;;1.80;0.85;;;23.30;56.80;;;;;;4179283;27;20054;-47
2021/12/12 03:28:51;;;;;;;2.13;0.70;;;23.30;56.80;;;;;;4178660;28;20400;-50
2021/12/12 03:30:56;;;;;;;1.73;1.05;;;23.40;56.80;;;;;;4176345;28;20043;-49
2021/12/12 03:32:58;;;;;;;2.50;1.00;;;23.40;56.90;;;;;;4182164;28;20066;-49
2021/12/12 03:35:01;;;;;;;2.93;1.07;;;23.40;56.90;;;;;;4184511;28;20047;-50
2021/12/12 03:37:06;;;;;;;1.42;0.80;;;23.40;56.90;;;;;;4177888;28;20344;-48
2021/12/12 03:39:18;;;;;;;1.40;0.70;;;23.40;56.70;;;;;;4159110;28;20132;-49
2021/12/12 03:41:25;;;;;;;2.90;1.08;;;23.50;56.80;;;;;;4177105;28;20052;-52
2021/12/12 03:43:28;;;;;;;2.33;0.80;;;23.50;56.70;;;;;;4179389;28;20148;-51
2021/12/12 03:45:31;;;;;;;1.45;0.70;;;23.50;56.80;;;;;;4185145;28;20075;-50
2021/12/12 03:47:37;;;;;;;3.17;1.10;;;23.50;56.60;;;;;;4180429;28;20495;-51
2021/12/12 03:49:40;;;;;;;3.15;1.05;;;23.50;56.60;;;;;;4176765;28;20124;-50
2021/12/12 03:51:44;;;;;;;3.13;1.10;;;23.50;56.60;;;;;;4178783;28;20052;-49
2021/12/12 03:53:47;;;;;;;3.38;1.20;;;23.50;56.60;;;;;;4182957;28;20047;-48
2021/12/12 03:55:50;;;;;;;4.13;1.48;;;23.60;56.50;;;;;;4185354;28;20054;-51
2021/12/12 03:57:53;;;;;;;3.55;1.02;;;23.60;56.50;;;;;;4177776;28;20160;-53
2021/12/12 03:59:55;;;;;;;2.15;0.90;;;23.60;56.40;;;;;;4178027;28;20137;-48
2021/12/12 04:01:58;;;;;;;2.47;1.27;;;23.60;56.40;;;;;;4180450;27;20052;-54
2021/12/12 04:04:07;;;;;;;3.75;1.17;;;23.60;56.30;;;;;;4182885;28;20068;-50
2021/12/12 04:06:16;;;;;;;4.55;1.33;;;23.60;56.40;;;;;;4176478;27;20059;-49
2021/12/12 04:08:24;;;;;;;4.50;1.38;;;23.60;56.30;;;;;;4176286;28;21694;-51
2021/12/12 04:10:26;;;;;;;2.65;0.90;;;23.70;56.30;;;;;;4177297;27;20058;-49
2021/12/12 04:12:28;;;;;;;2.03;0.90;;;23.70;56.20;;;;;;4176444;28;20048;-50
2021/12/12 04:14:31;;;;;;;3.53;1.60;;;23.70;56.10;;;;;;4183991;28;20134;-52
2021/12/12 04:16:43;;;;;;;3.13;1.25;;;23.80;56.20;;;;;;4179683;28;20541;-51
2021/12/12 04:18:45;;;;;;;4.95;1.45;;;23.80;55.90;;;;;;4175901;28;20059;-47
2021/12/12 04:20:48;;;;;;;3.53;1.30;;;23.80;55.70;;;;;;4176799;28;20051;-48
2021/12/12 04:22:50;;;;;;;2.60;1.10;;;23.80;55.60;;;;;;4179268;27;20109;-52
2021/12/12 04:24:55;;;;;;;3.25;0.90;;;23.90;55.60;;;;;;4184641;28;20357;-50
2021/12/12 04:26:58;;;;;;;4.70;1.10;;;23.90;55.50;;;;;;4174297;28;21690;-51
2021/12/12 04:29:11;;;;;;;4.13;1.27;;;23.80;55.50;;;;;;4177986;28;20125;-49
2021/12/12 04:31:15;;;;;;;3.75;1.33;;;23.90;55.50;;;;;;4175283;28;20440;-50
2021/12/12 04:33:17;;;;;;;3.00;1.08;;;24.00;55.50;;;;;;4180007;28;20047;-50
2021/12/12 04:35:27;;;;;;;2.53;1.00;;;24.00;55.50;;;;;;4185028;28;20083;-50
2021/12/12 04:37:30;;;;;;;4.30;1.42;;;24.00;55.40;;;;;;4185169;28;20718;-49
2021/12/12 04:39:36;;;;;;;2.65;1.20;;;24.00;55.40;;;;;;4176445;28;20055;-47
2021/12/12 04:41:41;;;;;;;1.92;0.90;;;24.00;55.30;;;;;;4175232;28;20174;-47
2021/12/12 04:43:43;;;;;;;3.60;1.27;;;24.10;55.30;;;;;;4177032;28;20051;-48
2021/12/12 04:46:21;;;;;;;2.30;0.80;;;24.10;55.10;;;;;;4184604;28;20458;-47
2021/12/12 04:50:53;;;;;;;3.53;1.45;;;24.20;54.90;;;;;;4184776;28;20055;-47
2021/12/12 04:53:07;;;;;;;4.63;1.30;;;24.30;54.90;;;;;;4183650;28;20043;-53
2021/12/12 04:55:38;;;;;;;3.65;1.20;;;24.30;54.30;;;;;;4178559;28;20104;-48
2021/12/12 04:57:51;;;;;;;2.97;1.17;;;24.40;54.80;;;;;;4181132;28;20125;-48
2021/12/12 05:00:22;;;;;;;;;;;24.40;54.60;;;;;;4182960;27;20063;-47
2021/12/12 05:02:34;;;;;;;3.72;1.50;;;24.40;54.40;;;;;;4108094;28;19935;-46
2021/12/12 05:04:59;;;;;;;5.25;1.50;;;24.40;54.10;;;;;;4162883;28;20058;-50
2021/12/12 05:07:19;;;;;;;3.17;1.13;;;24.50;54.20;;;;;;4184002;28;20063;-50
2021/12/12 05:09:42;;;;;;;2.90;1.33;;;24.50;54.00;;;;;;4182106;28;20368;-52
2021/12/12 05:12:09;;;;;;;3.78;1.70;;;24.50;54.10;;;;;;4177020;28;20090;-51
2021/12/12 05:14:24;;;;;;;5.18;1.27;;;24.60;53.80;;;;;;4185788;28;20138;-51
2021/12/12 05:16:30;;;;;;;3.78;1.38;;;24.60;53.70;;;;;;4183832;28;20043;-51
2021/12/12 05:18:39;;;;;;;4.40;1.40;;;24.60;53.50;;;;;;4185796;28;20135;-48
2021/12/12 05:20:54;;;;;;;3.15;1.40;;;24.70;53.40;;;;;;4181702;28;21815;-50
2021/12/12 05:23:00;;;;;;;4.93;1.95;;;24.70;53.30;;;;;;4184698;28;20058;-49
2021/12/12 05:25:07;;;;;;;5.32;1.30;;;24.80;53.80;;;;;;4180532;28;22252;-49
2021/12/12 05:27:23;;;;;;;4.82;1.65;;;24.80;53.00;;;;;;4173712;28;20051;-50
2021/12/12 05:29:34;;;;;;;6.90;1.52;;;24.80;53.00;;;;;;4178043;28;21903;-54
2021/12/12 05:31:37;;;;;;;4.75;1.40;;;24.90;52.90;;;;;;4179948;28;22347;-52
2021/12/12 05:33:40;;;;;;;4.75;1.60;;;24.90;52.80;;;;;;4177229;28;20082;-51
2021/12/12 05:35:45;;;;;;;3.78;1.40;;;24.90;52.70;;;;;;4172064;28;20158;-53
2021/12/12 05:37:52;;;;;;;4.75;1.52;;;25.00;52.50;;;;;;4183938;28;20604;-53
2021/12/12 05:40:00;;;;;;;4.15;1.52;;;25.00;52.50;;;;;;4186086;28;20111;-51
2021/12/12 05:42:03;;;;;;;5.57;1.75;;;25.10;52.30;;;;;;4184080;28;20823;-50
2021/12/12 05:44:06;;;;;;;5.93;2.03;;;25.10;52.30;;;;;;4174367;28;20404;-50
2021/12/12 05:46:08;;;;;;;6.28;2.03;;;25.10;52.10;;;;;;4175898;28;20690;-49
2021/12/12 05:48:11;;;;;;;5.28;1.52;;;25.10;52.10;;;;;;4187768;28;20058;-51
2021/12/12 05:50:15;;;;;;;5.68;2.00;;;25.20;52.20;;;;;;4183037;28;21942;-51
2021/12/12 05:52:19;;;;;;;5.78;2.20;;;25.20;52.30;;;;;;4178331;28;20039;-48
2021/12/12 05:54:25;;;;;;;4.88;2.30;;;25.20;52.20;;;;;;4177034;28;20111;-53
2021/12/12 05:56:31;;;;;;;4.95;1.83;;;25.30;52.10;;;;;;4176828;28;20044;-50
2021/12/12 05:58:34;;;;;;;4.80;1.85;;;25.30;52.00;;;;;;4178346;27;20043;-50
2021/12/12 06:00:37;;;;;;;;;;;25.30;52.00;;;;;;4173720;28;20079;-52
2021/12/12 06:02:40;;;;;;;5.57;2.00;;;25.40;52.00;;;;;;4173592;28;20022;-50
2021/12/12 06:04:42;;;;;;;2.58;1.23;;;25.40;52.00;;;;;;4174288;27;20056;-53
2021/12/12 06:06:46;;;;;;;4.85;1.67;;;25.40;51.70;;;;;;4184301;28;20507;-51
2021/12/12 06:08:49;;;;;;;6.75;2.08;;;25.40;51.70;;;;;;4179225;28;20058;-48
2021/12/12 06:10:55;;;;;;;5.38;2.00;;;25.50;51.40;;;;;;4180523;27;20058;-52
2021/12/12 06:12:58;;;;;;;5.22;2.28;;;25.50;51.40;;;;;;4181432;28;20138;-52
2021/12/12 06:15:03;;;;;;;6.28;1.75;;;25.60;51.30;;;;;;4189218;28;20055;-51
2021/12/12 06:17:12;;;;;;;4.30;1.83;;;25.60;51.20;;;;;;4185292;28;20059;-53
2021/12/12 06:19:23;;;;;;;6.22;1.88;;;25.60;51.10;;;;;;4181069;28;20738;-52
2021/12/12 06:21:26;;;;;;;5.88;1.95;;;25.70;51.10;;;;;;4175415;28;20434;-50
2021/12/12 06:23:29;;;;;;;3.53;1.77;;;25.70;50.90;;;;;;4177061;28;20472;-54
2021/12/12 06:25:31;;;;;;;6.18;1.77;;;25.70;50.90;;;;;;4181873;28;20047;-51
2021/12/12 06:27:34;;;;;;;2.63;1.17;;;25.70;50.90;;;;;;4188477;28;20044;-52
2021/12/12 06:29:36;;;;;;;5.10;1.98;;;25.70;50.80;;;;;;4179513;27;20043;-52
2021/12/12 06:31:44;;;;;;;4.70;1.77;;;25.70;50.70;;;;;;4194044;27;20044;-54
2021/12/12 06:33:47;;;;;;;3.10;1.42;;;25.70;50.70;;;;;;4164905;28;20153;-49
2021/12/12 06:35:50;;;;;;;6.00;1.90;;;25.70;50.70;;;;;;4188826;28;20051;-53
2021/12/12 06:37:52;;;;;;;4.60;1.60;;;25.70;50.60;;;;;;4180562;28;20067;-51
2021/12/12 06:39:55;;;;;;;4.43;1.55;;;25.70;50.60;;;;;;4160494;28;20137;-53
2021/12/12 06:41:58;;;;;;;4.60;2.20;;;25.70;50.60;;;;;;4184978;28;20089;-53
2021/12/12 06:44:07;;;;;;;3.47;1.60;;;25.70;50.50;;;;;;4189181;28;20047;-52
2021/12/12 06:46:10;;;;;;;4.57;1.65;;;25.70;50.60;;;;;;4185104;27;20347;-55
2021/12/12 06:48:13;;;;;;;;;;;25.70;50.80;;;;;;4181087;28;20188;-48
2021/12/12 06:50:15;;;;;;;4.60;1.48;;;25.70;50.80;;;;;;4174728;28;19934;-53
2021/12/12 06:52:20;;;;;;;5.50;1.70;;;25.70;50.90;;;;;;4186818;28;20048;-49
2021/12/12 06:54:25;;;;;;;4.72;2.10;;;25.60;50.90;;;;;;4164817;28;21609;-53
2021/12/12 06:56:31;;;;;;;4.72;1.65;;;25.60;50.90;;;;;;4177371;27;20044;-52
2021/12/12 06:58:34;;;;;;;5.20;1.60;;;25.60;51.00;;;;;;4181085;28;20862;-55
2021/12/12 07:00:41;;;;;;;4.70;1.63;;;25.60;51.20;;;;;;4183804;28;20063;-56
2021/12/12 07:02:45;;;;;;;3.83;1.17;;;25.60;51.10;;;;;;4189252;28;20804;-53
2021/12/12 07:04:47;;;;;;;4.90;1.42;;;25.60;51.20;;;;;;4164889;28;20440;-52
2021/12/12 07:06:58;;;;;;;4.53;1.40;;;25.60;51.30;;;;;;4176967;27;20040;-50
2021/12/12 07:09:03;;;;;;;4.78;1.42;;;25.60;51.40;;;;;;4172644;28;20058;-54
2021/12/12 07:11:07;;;;;;;4.00;1.40;;;25.60;51.40;;;;;;4176020;28;20051;-53
2021/12/12 07:13:10;;;;;;;5.97;1.73;;;25.50;51.30;;;;;;4182978;28;20059;-52
2021/12/12 07:15:15;;;;;;;;;;;25.50;51.30;;;;;;4176525;28;20112;-53
2021/12/12 07:17:18;;;;;;;2.72;1.00;;;25.50;51.40;;;;;;4174115;27;19930;-53
2021/12/12 07:19:21;;;;;;;3.58;1.30;;;25.50;51.40;;;;;;4178005;28;20182;-55
2021/12/12 07:21:24;;;;;;;4.22;1.70;;;25.50;51.50;;;;;;4167726;28;20051;-50
2021/12/12 07:23:27;;;;;;;4.88;1.52;;;25.50;51.40;;;;;;4184488;28;20615;-55
2021/12/12 07:25:30;;;;;;;4.05;1.33;;;25.50;51.50;;;;;;4180185;28;20055;-54
2021/12/12 07:27:32;;;;;;;3.47;1.40;;;25.50;51.50;;;;;;4182073;28;20087;-55
2021/12/12 07:29:35;;;;;;;3.97;1.50;;;25.40;51.60;;;;;;4186757;28;21283;-52
2021/12/12 07:31:39;;;;;;;3.20;1.42;;;25.40;51.60;;;;;;4174543;27;20052;-51
2021/12/12 07:33:42;;;;;;;4.28;1.33;;;25.40;51.60;;;;;;4170493;27;20146;-48
2021/12/12 07:35:46;;;;;;;3.65;1.55;;;25.40;51.70;;;;;;4179563;28;20126;-50
2021/12/12 07:37:49;;;;;;;3.53;1.10;;;25.40;51.80;;;;;;4185598;28;20252;-50
2021/12/12 07:39:52;;;;;;;4.35;1.30;;;25.40;51.80;;;;;;4178477;28;21060;-54
2021/12/12 07:41:57;;;;;;;5.22;1.40;;;25.40;52.30;;;;;;4178501;28;20051;-53
2021/12/12 07:44:00;;;;;;;4.63;1.58;;;25.30;51.90;;;;;;4177982;28;20079;-55
2021/12/12 07:46:04;;;;;;;4.45;1.25;;;25.30;51.90;;;;;;4185362;28;20059;-52
2021/12/12 07:48:11;;;;;;;3.33;1.38;;;25.30;52.00;;;;;;4175016;28;20261;-55
2021/12/12 07:50:17;;;;;;;3.80;1.17;;;25.30;52.10;;;;;;4174394;28;20047;-51
2021/12/12 07:52:23;;;;;;;4.72;1.50;;;25.30;52.30;;;;;;4172502;28;20051;-50
2021/12/12 07:54:26;;;;;;;5.78;1.65;;;25.20;52.20;;;;;;4175682;28;20142;-54
2021/12/12 07:56:32;;;;;;;4.50;1.35;;;25.20;52.20;;;;;;4183559;28;20047;-53
2021/12/12 07:58:36;;;;;;;2.63;1.13;;;25.20;52.20;;;;;;4178080;28;20354;-50
2021/12/12 08:00:41;;;;;;;4.70;1.30;;;25.20;52.20;;;;;;4175225;28;20059;-51
2021/12/12 08:02:43;;;;;;;5.03;1.85;;;25.20;52.30;;;;;;4174320;28;20052;-53
2021/12/12 08:04:46;;;;;;;3.50;1.45;;;25.20;52.30;;;;;;4182416;28;20039;-55
2021/12/12 08:06:50;;;;;;;3.55;1.52;;;25.20;52.60;;;;;;4178004;28;21495;-53
2021/12/12 08:08:53;;;;;;;7.45;2.33;;;25.10;52.30;;;;;;4175558;28;20043;-54
2021/12/12 08:10:57;;;;;;;4.43;1.85;;;25.10;52.20;;;;;;4177985;28;20217;-52
2021/12/12 08:13:00;;;;;;;6.13;1.95;;;25.10;52.30;;;;;;4181532;28;20062;-54
2021/12/12 08:15:07;;;;;;;2.30;1.13;;;25.10;52.30;;;;;;4183262;28;20174;-49
2021/12/12 08:17:11;;;;;;;3.25;1.30;;;25.10;52.30;;;;;;4176637;28;21663;-49
2021/12/12 08:19:13;;;;;;;4.93;1.58;;;25.10;52.30;;;;;;4178670;28;20108;-50
2021/12/12 08:21:19;;;;;;;3.65;1.45;;;25.10;52.30;;;;;;4180913;28;20048;-51
2021/12/12 08:23:23;;;;;;;4.40;1.30;;;25.10;52.40;;;;;;4186219;28;20155;-51
2021/12/12 08:25:26;;;;;;;4.20;1.50;;;25.00;52.30;;;;;;4178482;28;20066;-53
2021/12/12 08:27:29;;;;;;;3.08;1.40;;;25.00;52.40;;;;;;4178232;28;20048;-53
2021/12/12 08:29:32;;;;;;;3.20;1.17;;;25.00;52.50;;;;;;4178809;28;20115;-50
2021/12/12 08:31:36;;;;;;;4.88;1.38;;;25.00;52.90;;;;;;4186137;28;20646;-54
2021/12/12 08:33:39;;;;;;;4.65;1.38;;;25.00;52.40;;;;;;4177730;28;21172;-50
2021/12/12 08:35:43;;;;;;;3.25;1.60;;;25.00;52.50;;;;;;4179184;28;20048;-52
2021/12/12 08:37:47;;;;;;;6.05;1.48;;;24.90;52.50;;;;;;4177791;27;20051;-54
2021/12/12 08:39:49;;;;;;;5.72;2.28;;;24.90;52.40;;;;;;4184818;28;20107;-52
2021/12/12 08:41:53;;;;;;;6.40;1.88;;;24.90;52.40;;;;;;4161339;28;20063;-54
2021/12/12 08:43:56;;;;;;;4.90;1.70;;;24.90;52.30;;;;;;4161252;28;20169;-52
2021/12/12 08:46:07;;;;;;;4.00;1.45;;;24.80;52.30;;;;;;4165748;28;20059;-54
2021/12/12 08:48:10;;;;;;;4.20;1.27;;;24.80;52.50;;;;;;4162602;28;20078;-55
2021/12/12 08:50:16;;;;;;;3.53;1.30;;;24.80;52.50;;;;;;4163610;28;20636;-51
2021/12/12 08:52:30;;;;;;;5.90;1.30;;;24.80;52.50;;;;;;4168685;28;20054;-52
2021/12/12 08:54:39;;;;;;;4.03;1.38;;;24.80;52.70;;;;;;4177377;28;20871;-51
2021/12/12 08:56:48;;;;;;;3.90;1.60;;;24.80;52.70;;;;;;4169232;28;20079;-52
2021/12/12 08:58:53;;;;;;;6.68;1.77;;;24.80;52.80;;;;;;4168646;28;22243;-50
2021/12/12 09:01:04;;;;;;;4.15;1.80;;;24.80;52.60;;;;;;4170533;28;20067;-51
2021/12/12 09:03:08;;;;;;;4.75;1.90;;;24.80;52.80;;;;;;4164270;28;20048;-52
2021/12/12 09:05:17;;;;;;;3.85;1.70;;;24.70;52.70;;;;;;4150657;28;20059;-54
2021/12/12 09:07:40;;;;;;;4.50;1.60;;;24.70;53.50;;;;;;4161963;28;20130;-51
2021/12/12 09:10:26;;;;;;;6.05;1.90;;;24.70;52.70;;;;;;4171937;28;20536;-49
2021/12/12 09:12:38;;;;;;;2.65;1.20;;;24.70;52.90;;;;;;4169285;28;20157;-51
2021/12/12 09:14:54;;;;;;;3.90;1.40;;;24.60;53.10;;;;;;4164196;28;20095;-51
2021/12/12 09:17:03;;;;;;;4.28;1.50;;;24.70;53.00;;;;;;4166518;28;20051;-54
2021/12/12 09:19:13;;;;;;;3.55;1.30;;;24.60;54.60;;;;;;4164205;28;20091;-49
2021/12/12 09:21:26;;;;;;;6.10;1.33;;;24.70;55.00;;;;;;4170381;28;20128;-48
2021/12/12 09:23:32;;;;;;;4.82;1.02;;;24.70;55.50;;;;;;4169524;27;21297;-49
2021/12/12 09:25:50;;;;;;;5.32;1.40;;;24.70;55.80;;;;;;4171281;27;20051;-46
2021/12/12 09:28:06;;;;;;;15.48;1.60;;;24.70;55.80;;;;;;4170754;27;20106;-52
2021/12/12 09:30:15;;;;;;;5.30;1.30;;;24.70;55.90;;;;;;4172402;28;21500;-48
2021/12/12 09:32:44;;;;;;;6.78;1.25;;;24.70;56.10;;;;;;4170196;28;20706;-49
2021/12/12 09:34:57;;;;;;;5.03;1.20;;;24.70;56.10;;;;;;4179608;27;20066;-52
2021/12/12 09:37:07;;;;;;;5.78;0.93;;;24.70;56.30;;;;;;4175129;28;20048;-46
2021/12/12 09:39:18;;;;;;;3.05;1.23;;;24.80;56.30;;;;;;4177006;28;20099;-48
2021/12/12 09:42:06;;;;;;;2.83;1.20;;;24.80;57.00;;;;;;4181988;28;21459;-51
2021/12/12 09:44:39;;;;;;;2.47;1.00;;;24.80;56.30;;;;;;4154672;28;20052;-49
2021/12/12 09:52:06;;;;;;;6.13;1.58;;;24.80;56.30;;;;;;4172751;28;20490;-49
2021/12/12 09:54:27;;;;;;;9.18;2.38;;;24.80;56.10;;;;;;4175266;28;20130;-49
2021/12/12 09:57:04;;;;;;;6.20;2.20;;;24.80;56.20;;;;;;4177540;28;21755;-49
2021/12/12 10:12:49;;;;;;;6.38;2.47;;;24.80;55.40;;;;;;4200594;27;20428;-82
2021/12/12 10:15:03;;;;;;;5.28;2.50;;;24.90;55.10;;;;;;4191863;27;20112;-79
2021/12/12 10:17:21;;;;;;;11.50;2.70;;;24.90;55.20;;;;;;4193493;27;20564;-82
2021/12/12 10:20:09;;;;;;;5.57;2.20;;;24.90;55.40;;;;;;4175656;28;20040;-80
2021/12/12 10:22:54;;;;;;;4.63;2.15;;;24.90;56.00;;;;;;4193099;28;20704;-80
2021/12/12 10:25:11;;;;;;;6.28;1.92;;;24.80;55.50;;;;;;4174173;28;20055;-79
2021/12/12 10:27:42;;;;;;;7.60;2.25;;;24.80;55.70;;;;;;4197822;27;21299;-85
2021/12/12 10:30:15;;;;;;;4.63;1.95;;;24.80;55.80;;;;;;4171024;28;20202;-82
2021/12/12 10:33:05;;;;;;;4.40;2.05;;;24.80;55.80;;;;;;4181476;28;20264;-80
2021/12/12 10:35:28;;;;;;;4.57;2.05;;;24.80;56.00;;;;;;4194879;27;20048;-78
2021/12/12 10:37:43;;;;;;;2.83;1.60;;;24.80;56.00;;;;;;4180608;27;21251;-82
2021/12/12 10:40:01;;;;;;;4.25;1.52;;;24.80;56.00;;;;;;4155039;28;20470;-79
2021/12/12 10:42:10;;;;;;;3.40;1.80;;;24.80;56.10;;;;;;4174833;28;20230;-82
2021/12/12 10:44:38;;;;;;;6.50;1.80;;;24.80;56.20;;;;;;4160414;28;20052;-78
2021/12/12 10:46:55;;;;;;;3.63;1.77;;;24.70;56.40;;;;;;4156953;28;20138;-81
2021/12/12 10:49:30;;;;;;;2.92;1.70;;;24.80;56.40;;;;;;4171510;28;20052;-81
2021/12/12 10:51:41;;;;;;;2.78;1.30;;;24.80;56.60;;;;;;4169962;28;20052;-85
2021/12/12 10:53:43;;;;;;;3.90;1.77;;;24.70;56.50;;;;;;4161237;28;20346;-75
2021/12/12 10:56:18;;;;;;;4.05;1.38;;;24.70;56.40;;;;;;4179561;28;20060;-82
2021/12/12 10:58:58;;;;;;;5.50;2.05;;;24.70;56.10;;;;;;4190211;28;20054;-82
2021/12/12 11:01:48;;;;;;;6.03;1.48;;;24.70;55.90;;;;;;4162631;28;20186;-82
2021/12/12 11:04:19;;;;;;;3.35;1.60;;;24.70;55.80;;;;;;4097803;28;20096;-78
2021/12/12 11:06:57;;;;;;;3.03;1.67;;;24.70;55.50;;;;;;4078129;28;20252;-83
2021/12/12 11:09:22;;;;;;;4.80;1.85;;;24.60;55.40;;;;;;4165719;28;20052;-80
2021/12/12 11:11:39;;;;;;;2.63;1.40;;;24.60;55.70;;;;;;4165903;28;20064;-80
2021/12/12 11:14:12;;;;;;;6.85;1.88;;;24.60;55.80;;;;;;4148066;28;20048;-83
2021/12/12 11:19:47;;;;;;;6.43;1.55;;;24.60;56.30;;;;;;4148148;23;20045;-51
2021/12/12 11:22:05;;;;;;;5.28;1.55;;;24.60;56.40;;;;;;4124739;28;20159;-48
2021/12/12 11:24:18;;;;;;;15.48;2.28;;;24.60;57.20;;;;;;4137488;28;20072;-48
2021/12/12 11:26:43;;;;;;;17.10;2.20;;;24.60;56.80;;;;;;4138068;28;20044;-48
2021/12/12 11:28:53;;;;;;;8.95;1.70;;;24.60;56.80;;;;;;4099077;28;20102;-52
2021/12/12 11:31:12;;;;;;;9.35;1.38;;;24.60;56.80;;;;;;4128862;28;20056;-45
2021/12/12 11:33:18;;;;;;;8.02;1.27;;;24.60;56.80;;;;;;4141855;28;20414;-53
2021/12/12 11:35:23;;;;;;;12.05;2.00;;;24.60;56.70;;;;;;4145185;28;21542;-50
2021/12/12 11:37:58;;;;;;;5.30;1.20;;;24.60;57.20;;;;;;4140452;28;20074;-48
2021/12/12 11:40:17;;;;;;;9.63;1.40;;;24.60;57.30;;;;;;4112263;28;20067;-49
2021/12/12 11:42:28;;;;;;;5.80;1.35;;;24.60;57.20;;;;;;4140029;28;21955;-51
2021/12/12 11:44:57;;;;;;;7.50;1.52;;;24.60;57.40;;;;;;4136608;28;20060;-45
2021/12/12 11:47:25;;;;;;;9.10;1.30;;;24.60;57.30;;;;;;4124183;28;20053;-49
2021/12/12 11:49:54;;;;;;;10.85;1.60;;;24.60;57.70;;;;;;4137636;28;20931;-47
2021/12/12 11:52:10;;;;;;;10.77;1.60;;;24.60;57.50;;;;;;4101484;28;20084;-53
2021/12/12 11:54:32;;;;;;;19.85;1.48;;;24.60;57.60;;;;;;4128008;28;20045;-50
2021/12/12 11:56:49;;;;;;;12.95;1.70;;;24.60;57.80;;;;;;4117935;28;21259;-50
2021/12/12 11:59:09;;;;;;;26.08;1.95;;;24.60;57.70;;;;;;4090132;28;20947;-49
2021/12/12 12:01:27;;;;;;;14.13;1.67;;;24.60;57.80;;;;;;4123729;28;20134;-51
2021/12/12 12:03:49;;;;;;;6.07;0.95;;;24.60;57.70;;;;;;4098871;28;20144;-53
2021/12/12 12:06:03;;;;;;;7.78;1.50;;;24.60;57.70;;;;;;4116171;28;20053;-50
2021/12/12 12:08:26;;;;;;;5.55;1.23;;;24.60;57.80;;;;;;4116721;28;20094;-49
2021/12/12 12:10:40;;;;;;;6.55;1.08;;;24.60;57.70;;;;;;4126229;28;20482;-50
2021/12/12 12:12:58;;;;;;;5.65;1.20;;;24.60;57.80;;;;;;4124142;28;20069;-53
2021/12/12 12:15:13;;;;;;;9.85;1.88;;;24.60;57.70;;;;;;4121905;28;20049;-51
2021/12/12 12:17:32;;;;;;;4.60;1.00;;;24.60;57.90;;;;;;4119261;28;20045;-50
2021/12/12 12:19:55;;;;;;;5.22;1.00;;;24.60;57.90;;;;;;4099570;28;20046;-47
2021/12/12 12:22:10;;;;;;;7.03;1.25;;;24.60;57.90;;;;;;4103953;28;20163;-51
2021/12/12 12:24:41;;;;;;;5.88;1.30;;;24.60;57.90;;;;;;4105836;28;20057;-48
2021/12/12 12:27:17;;;;;;;9.50;1.40;;;24.60;57.80;;;;;;4114370;28;20127;-47
2021/12/12 12:29:30;;;;;;;5.45;0.95;;;24.60;57.70;;;;;;4096202;28;20049;-46
2021/12/12 12:31:39;;;;;;;5.43;1.15;;;24.60;57.70;;;;;;4097982;28;20085;-49
2021/12/12 12:34:18;;;;;;;5.22;0.80;;;24.60;57.80;;;;;;4118185;28;20097;-47
2021/12/12 12:36:58;;;;;;;2.83;0.90;;;24.60;57.70;;;;;;4126907;28;20060;-49
2021/12/12 12:39:40;;;;;;;5.30;0.80;;;24.60;57.70;;;;;;4126965;28;20179;-50
2021/12/12 12:42:21;;;;;;;1.70;0.70;;;24.60;57.70;;;;;;4120457;28;22079;-50
2021/12/12 12:45:17;;;;;;;3.60;0.68;;;24.60;57.70;;;;;;4119084;28;20199;-47
2021/12/12 12:47:40;;;;;;;4.15;0.90;;;24.60;57.70;;;;;;4051457;28;20118;-48
2021/12/12 12:49:48;;;;;;;4.47;0.90;;;24.60;57.80;;;;;;4092085;28;20054;-48
2021/12/12 12:52:11;;;;;;;1.73;0.65;;;24.60;57.70;;;;;;4120071;28;20059;-51
2021/12/12 12:54:34;;;;;;;2.53;0.82;;;24.60;57.70;;;;;;4099115;28;20045;-52
2021/12/12 12:56:57;;;;;;;4.53;0.90;;;24.60;57.70;;;;;;4125780;28;20053;-49
2021/12/12 12:59:31;;;;;;;2.60;0.73;;;24.60;57.80;;;;;;4117800;28;20045;-52
2021/12/12 13:36:56;;;;;;;3.40;1.16;;;24.40;57.70;;;;;;5024668;22;2441105;-50
2021/12/12 13:39:22;;;;;;;2.38;0.75;;;24.40;57.60;;;;;;5113506;23;20059;-50
2021/12/12 13:42:09;;;;;;;2.47;0.80;;;24.40;57.60;;;;;;5087011;23;20539;-49
2021/12/12 13:44:32;;;;;;;0.70;0.47;;;24.40;57.80;;;;;;5000607;23;20371;-47
2021/12/12 13:46:37;;;;;;;8.75;0.65;;;24.40;57.60;;;;;;5084854;23;20089;-50
2021/12/12 13:49:00;;;;;;;5.55;0.60;;;24.40;58.00;;;;;;5107911;23;20226;-50